Time;durP1;ratioP1;P1;durP2;ratioP2;P2;SDS_P1;SDS_P2;PMS_P1;PMS_P2;Temp;Humidity;BMP_temperature;BMP_pressure;BME280_temperature;BME280_humidity;BME280_pressure;Samples;Min_cycle;Max_cycle;Signal;HPM_P1;HPM_P2
2022/01/07 00:02:07;;;;;;;;;;;22.70;99.90;;;;;;5092545;28;20351;-77
2022/01/07 00:04:35;;;;;;;;;;;22.70;99.90;;;;;;5092643;28;19908;-76
2022/01/07 00:07:03;;;;;;;;;;;22.80;99.90;;;;;;5092518;28;20424;-76
2022/01/07 00:09:30;;;;;;;;;;;22.90;99.90;;;;;;5092209;28;19956;-77
2022/01/07 00:11:57;;;;;;;;;;;23.10;99.90;;;;;;5124934;28;19913;-77
2022/01/07 00:14:23;;;;;;;;;;;23.20;99.90;;;;;;5092547;28;19912;-77
2022/01/07 00:16:50;;;;;;;;;;;23.20;99.90;;;;;;5092652;28;20427;-76
2022/01/07 00:19:19;;;;;;;;;;;23.30;99.90;;;;;;5092747;28;19981;-76
2022/01/07 00:21:46;;;;;;;;;;;23.40;99.90;;;;;;5091072;28;19916;-77
2022/01/07 00:24:13;;;;;;;;;;;23.40;99.90;;;;;;5092641;28;20003;-76
2022/01/07 00:26:43;;;;;;;;;;;23.50;99.90;;;;;;5092473;28;19998;-76
2022/01/07 00:29:10;;;;;;;;;;;23.40;99.90;;;;;;5092363;28;19997;-77
2022/01/07 00:31:36;;;;;;;;;;;23.40;99.90;;;;;;5092445;28;20400;-76
2022/01/07 00:34:03;;;;;;;;;;;23.40;99.90;;;;;;5092027;28;19909;-75
2022/01/07 00:36:30;;;;;;;;;;;23.50;99.90;;;;;;5092244;28;19912;-76
2022/01/07 00:38:56;;;;;;;;;;;23.50;99.90;;;;;;5092142;28;19916;-76
2022/01/07 00:41:23;;;;;;;;;;;23.50;99.90;;;;;;5092487;28;19914;-75
2022/01/07 00:43:50;;;;;;;;;;;23.40;99.90;;;;;;5092083;28;19961;-75
2022/01/07 00:46:19;;;;;;;;;;;23.50;99.90;;;;;;5092141;28;20003;-76
2022/01/07 00:48:45;;;;;;;;;;;23.40;99.90;;;;;;5092113;28;20336;-75
2022/01/07 00:51:13;;;;;;;;;;;23.40;99.90;;;;;;5091893;28;19969;-76
2022/01/07 00:53:41;;;;;;;;;;;23.50;99.90;;;;;;5092015;28;19977;-75
2022/01/07 00:56:08;;;;;;;;;;;23.50;99.90;;;;;;5091974;28;20367;-75
2022/01/07 00:58:34;;;;;;;;;;;23.60;99.90;;;;;;5091982;28;19998;-76
2022/01/07 01:01:01;;;;;;;;;;;23.60;99.90;;;;;;5091890;28;19908;-75
2022/01/07 01:03:28;;;;;;;;;;;23.70;99.90;;;;;;5093881;28;19908;-75
2022/01/07 01:05:57;;;;;;;;;;;23.80;99.90;;;;;;5095767;28;19908;-76
2022/01/07 01:08:25;;;;;;;;;;;23.80;99.90;;;;;;5095741;28;19908;-75
2022/01/07 01:10:52;;;;;;;;;;;23.70;99.90;;;;;;5095523;28;19928;-75
2022/01/07 01:13:19;;;;;;;;;;;23.80;99.90;;;;;;5095391;28;19908;-75
2022/01/07 01:15:45;;;;;;;;;;;23.90;99.90;;;;;;5095417;28;19908;-75
2022/01/07 01:18:12;;;;;;;;;;;23.90;99.90;;;;;;5095462;28;19919;-75
2022/01/07 01:20:39;;;;;;;;;;;23.80;99.90;;;;;;5095325;28;20091;-74
2022/01/07 01:23:06;;;;;;;;;;;23.80;99.90;;;;;;5095406;28;20378;-75
2022/01/07 01:25:32;;;;;;;;;;;23.90;99.90;;;;;;5095334;28;19938;-75
2022/01/07 01:27:59;;;;;;;;;;;23.90;99.90;;;;;;5095387;28;19908;-75
2022/01/07 01:30:32;;;;;;;;;;;23.80;99.90;;;;;;5075526;28;19908;-74
2022/01/07 01:32:59;;;;;;;;;;;23.70;99.90;;;;;;5074976;28;20003;-75
2022/01/07 01:35:26;;;;;;;;;;;23.70;99.90;;;;;;5074890;28;19962;-75
2022/01/07 01:37:53;;;;;;;;;;;23.70;99.90;;;;;;5074289;28;19916;-75
2022/01/07 01:40:20;;;;;;;;;;;23.70;99.90;;;;;;5074495;28;20306;-75
2022/01/07 01:42:48;;;;;;;;;;;23.60;99.90;;;;;;5073966;28;19955;-74
2022/01/07 01:45:18;;;;;;;;;;;23.60;99.90;;;;;;5074273;28;19916;-75
2022/01/07 01:47:44;;;;;;;;;;;23.60;99.90;;;;;;5074724;28;20350;-76
2022/01/07 01:50:12;;;;;;;;;;;23.70;99.90;;;;;;5074800;28;20390;-76
2022/01/07 01:52:43;;;;;;;;;;;23.70;99.90;;;;;;5074576;28;19909;-76
2022/01/07 01:55:10;;;;;;;;;;;23.70;99.90;;;;;;5074713;28;20363;-77
2022/01/07 01:57:37;;;;;;;;;;;23.90;99.90;;;;;;5074421;28;20283;-76
2022/01/07 02:00:05;;;;;;;;;;;24.00;99.90;;;;;;5074049;28;20378;-76
2022/01/07 02:02:32;;;;;;;;;;;24.10;99.90;;;;;;5074514;28;19959;-76
2022/01/07 02:04:58;;;;;;;;;;;24.10;99.90;;;;;;5074303;28;19909;-76
2022/01/07 02:07:27;;;;;;;;;;;24.10;99.90;;;;;;5074078;28;20367;-76
2022/01/07 02:09:54;;;;;;;;;;;24.20;99.90;;;;;;5073846;28;20006;-76
2022/01/07 02:12:21;;;;;;;;;;;24.20;99.90;;;;;;5074211;28;19909;-76
2022/01/07 02:14:52;;;;;;;;;;;24.20;99.90;;;;;;5072869;28;19908;-76
2022/01/07 02:17:20;;;;;;;;;;;24.20;99.90;;;;;;5073934;28;20371;-76
2022/01/07 02:19:47;;;;;;;;;;;24.20;99.90;;;;;;5073721;28;19917;-75
2022/01/07 02:22:14;;;;;;;;;;;24.20;99.90;;;;;;5073953;28;19908;-76
2022/01/07 02:24:41;;;;;;;;;;;24.20;99.90;;;;;;5074101;28;19999;-76
2022/01/07 02:27:07;;;;;;;;;;;24.20;99.90;;;;;;5073744;28;19916;-76
2022/01/07 02:29:34;;;;;;;;;;;24.00;99.90;;;;;;5073715;28;19915;-76
2022/01/07 02:32:01;;;;;;;;;;;24.00;99.90;;;;;;5073740;28;19944;-76
2022/01/07 02:34:27;;;;;;;;;;;24.00;99.90;;;;;;5073817;28;19948;-76
2022/01/07 02:36:54;;;;;;;;;;;24.00;99.90;;;;;;5073654;28;19950;-75
2022/01/07 02:39:21;;;;;;;;;;;24.00;99.90;;;;;;5073367;28;19916;-76
2022/01/07 02:41:47;;;;;;;;;;;24.00;99.90;;;;;;5073600;28;19909;-76
2022/01/07 02:44:14;;;;;;;;;;;24.00;99.90;;;;;;5073959;28;19908;-76
2022/01/07 02:46:41;;;;;;;;;;;24.00;99.90;;;;;;5073652;28;19909;-76
2022/01/07 02:49:09;;;;;;;;;;;24.10;99.90;;;;;;5073568;28;19935;-76
2022/01/07 02:51:37;;;;;;;;;;;24.10;99.90;;;;;;5073375;28;19955;-76
2022/01/07 02:54:03;;;;;;;;;;;24.10;99.90;;;;;;5073068;28;19912;-76
2022/01/07 02:56:30;;;;;;;;;;;24.00;99.90;;;;;;5105887;28;19936;-75
2022/01/07 02:58:57;;;;;;;;;;;23.90;99.90;;;;;;5073410;28;19923;-75
2022/01/07 03:01:24;;;;;;;;;;;24.00;99.90;;;;;;5077676;28;20286;-75
2022/01/07 03:03:50;;;;;;;;;;;24.10;99.90;;;;;;5091407;28;19933;-75
2022/01/07 03:06:17;;;;;;;;;;;24.20;99.90;;;;;;5090591;28;20003;-75
2022/01/07 03:08:47;;;;;;;;;;;24.30;99.90;;;;;;5092166;28;20351;-76
2022/01/07 03:11:14;;;;;;;;;;;24.30;99.90;;;;;;5092719;28;19964;-75
2022/01/07 03:13:40;;;;;;;;;;;24.30;99.90;;;;;;5092331;28;19930;-75
2022/01/07 03:16:07;;;;;;;;;;;24.40;99.90;;;;;;5092563;28;20269;-75
2022/01/07 03:18:34;;;;;;;;;;;24.50;99.90;;;;;;5092518;28;19995;-75
2022/01/07 03:21:00;;;;;;;;;;;24.60;99.90;;;;;;5092996;28;19917;-75
2022/01/07 03:23:27;;;;;;;;;;;24.70;99.90;;;;;;5092597;28;19977;-76
2022/01/07 03:25:54;;;;;;;;;;;24.80;99.90;;;;;;5091257;28;19915;-75
2022/01/07 03:28:21;;;;;;;;;;;24.80;99.90;;;;;;5090800;28;19974;-76
2022/01/07 03:30:47;;;;;;;;;;;24.80;99.90;;;;;;5090629;28;19908;-75
2022/01/07 03:33:14;;;;;;;;;;;24.80;99.90;;;;;;5090821;28;19932;-75
2022/01/07 03:35:41;;;;;;;;;;;24.90;99.90;;;;;;5090753;28;20354;-75
2022/01/07 03:38:08;;;;;;;;;;;24.80;99.90;;;;;;5090408;28;19912;-75
2022/01/07 03:40:35;;;;;;;;;;;24.60;99.90;;;;;;5091017;28;20432;-75
2022/01/07 03:43:02;;;;;;;;;;;24.60;99.90;;;;;;5092476;28;19916;-75
2022/01/07 03:45:29;;;;;;;;;;;24.50;99.90;;;;;;5092544;28;19955;-75
2022/01/07 03:47:56;;;;;;;;;;;24.50;99.90;;;;;;5092454;28;19915;-75
2022/01/07 03:50:24;;;;;;;;;;;24.70;99.90;;;;;;5092365;28;19956;-75
2022/01/07 03:52:51;;;;;;;;;;;24.80;99.90;;;;;;5092028;28;19917;-75
2022/01/07 03:55:19;;;;;;;;;;;24.90;99.90;;;;;;5092258;28;20038;-75
2022/01/07 03:57:46;;;;;;;;;;;25.00;99.90;;;;;;5091487;28;20278;-75
2022/01/07 04:00:20;;;;;;;;;;;24.90;99.90;;;;;;5092398;28;19920;-75
2022/01/07 04:02:47;;;;;;;;;;;24.80;99.90;;;;;;5089544;28;20315;-76
2022/01/07 04:05:15;;;;;;;;;;;24.70;99.90;;;;;;5091420;28;19954;-75
2022/01/07 04:07:42;;;;;;;;;;;24.80;99.90;;;;;;5090595;28;19912;-76
2022/01/07 04:10:09;;;;;;;;;;;24.70;99.90;;;;;;5092034;28;19927;-76
2022/01/07 04:12:35;;;;;;;;;;;24.60;99.90;;;;;;5092611;28;19919;-75
2022/01/07 04:15:11;;;;;;;;;;;24.50;99.90;;;;;;5091464;28;19952;-75
2022/01/07 04:17:39;;;;;;;;;;;24.40;99.90;;;;;;5091716;28;19908;-75
2022/01/07 04:20:06;;;;;;;;;;;24.50;99.90;;;;;;5091651;28;19920;-75
2022/01/07 04:22:33;;;;;;;;;;;24.50;99.90;;;;;;5092358;28;19920;-75
2022/01/07 04:25:01;;;;;;;;;;;24.60;99.90;;;;;;5092275;28;19954;-74
2022/01/07 04:27:27;;;;;;;;;;;24.60;99.90;;;;;;5092296;28;19952;-75
2022/01/07 04:29:54;;;;;;;;;;;24.60;99.90;;;;;;5091857;28;19960;-75
2022/01/07 04:32:21;;;;;;;;;;;24.70;99.90;;;;;;5091351;28;19909;-75
2022/01/07 04:34:47;;;;;;;;;;;24.60;99.90;;;;;;5092290;28;19989;-75
2022/01/07 04:37:14;;;;;;;;;;;24.50;99.90;;;;;;5092092;28;19931;-75
2022/01/07 04:39:41;;;;;;;;;;;24.60;99.90;;;;;;5095863;28;20007;-75
2022/01/07 04:42:08;;;;;;;;;;;24.50;99.90;;;;;;5095461;28;19924;-75
2022/01/07 04:44:40;;;;;;;;;;;24.50;99.90;;;;;;5096296;28;19918;-75
2022/01/07 04:47:07;;;;;;;;;;;24.50;99.90;;;;;;5096235;28;20314;-75
2022/01/07 04:49:34;;;;;;;;;;;24.50;99.90;;;;;;5096282;28;20450;-75
2022/01/07 04:52:01;;;;;;;;;;;24.50;99.90;;;;;;5095383;28;20378;-75
2022/01/07 04:54:28;;;;;;;;;;;24.50;99.90;;;;;;5095690;28;19970;-75
2022/01/07 04:56:55;;;;;;;;;;;24.50;99.90;;;;;;5095707;28;19908;-75
2022/01/07 04:59:21;;;;;;;;;;;24.50;99.90;;;;;;5095740;28;20062;-75
2022/01/07 05:01:48;;;;;;;;;;;24.40;99.90;;;;;;5095380;28;19908;-74
2022/01/07 05:04:15;;;;;;;;;;;24.30;99.90;;;;;;5095663;28;19951;-74
2022/01/07 05:06:45;;;;;;;;;;;24.30;99.90;;;;;;5095669;28;19908;-74
2022/01/07 05:09:16;;;;;;;;;;;24.30;99.90;;;;;;5077091;28;19973;-74
2022/01/07 05:11:50;;;;;;;;;;;24.30;99.90;;;;;;5075450;28;19927;-74
2022/01/07 05:14:17;;;;;;;;;;;24.30;99.90;;;;;;5075485;28;20278;-74
2022/01/07 05:16:44;;;;;;;;;;;24.20;99.90;;;;;;5075228;28;19995;-74
2022/01/07 05:19:11;;;;;;;;;;;24.30;99.90;;;;;;5075108;28;20002;-74
2022/01/07 05:21:38;;;;;;;;;;;24.30;99.90;;;;;;5074968;28;19947;-74
2022/01/07 05:24:05;;;;;;;;;;;24.20;99.90;;;;;;5074771;28;19981;-74
2022/01/07 05:26:32;;;;;;;;;;;24.30;99.90;;;;;;5075046;28;19908;-75
2022/01/07 05:28:58;;;;;;;;;;;24.30;99.90;;;;;;5074953;28;19928;-75
2022/01/07 05:31:25;;;;;;;;;;;24.40;99.90;;;;;;5074898;28;20329;-75
2022/01/07 05:33:53;;;;;;;;;;;24.40;99.90;;;;;;5074721;28;19939;-75
2022/01/07 05:36:20;;;;;;;;;;;24.40;99.90;;;;;;5074753;28;20454;-74
2022/01/07 05:38:47;;;;;;;;;;;24.50;99.90;;;;;;5074912;28;19914;-75
2022/01/07 05:41:14;;;;;;;;;;;24.50;99.90;;;;;;5075120;28;19908;-74
2022/01/07 05:43:41;;;;;;;;;;;24.50;99.90;;;;;;5074627;28;19912;-74
2022/01/07 05:46:13;;;;;;;;;;;24.50;99.90;;;;;;5074381;28;20504;-75
2022/01/07 05:48:39;;;;;;;;;;;24.40;99.90;;;;;;5074308;28;19908;-74
2022/01/07 05:51:07;;;;;;;;;;;24.40;99.90;;;;;;5072818;28;19944;-74
2022/01/07 05:53:33;;;;;;;;;;;24.30;99.90;;;;;;5072568;28;19915;-74
2022/01/07 05:56:00;;;;;;;;;;;24.20;99.90;;;;;;5072365;28;19912;-74
2022/01/07 05:58:26;;;;;;;;;;;24.20;99.90;;;;;;5072427;28;19923;-74
2022/01/07 06:00:54;;;;;;;;;;;24.20;99.90;;;;;;5072519;28;19917;-74
2022/01/07 06:03:21;;;;;;;;;;;24.20;99.90;;;;;;5104617;28;19913;-74
2022/01/07 06:05:48;;;;;;;;;;;24.20;99.90;;;;;;5071842;28;19912;-74
2022/01/07 06:08:15;;;;;;;;;;;24.00;99.90;;;;;;5072137;28;19919;-73
2022/01/07 06:10:42;;;;;;;;;;;24.00;99.90;;;;;;5072014;28;19932;-74
2022/01/07 06:13:08;;;;;;;;;;;24.10;99.90;;;;;;5072276;28;19908;-73
2022/01/07 06:15:35;;;;;;;;;;;24.00;99.90;;;;;;5072089;28;19916;-74
2022/01/07 06:18:05;;;;;;;;;;;24.00;99.90;;;;;;5071441;28;20331;-74
2022/01/07 06:20:32;;;;;;;;;;;23.90;99.90;;;;;;5072035;28;19917;-74
2022/01/07 06:22:58;;;;;;;;;;;24.00;99.90;;;;;;5071787;28;20358;-74
2022/01/07 06:25:25;;;;;;;;;;;24.00;99.90;;;;;;5071800;28;19955;-74
2022/01/07 06:27:52;;;;;;;;;;;24.00;99.90;;;;;;5071630;28;19913;-74
2022/01/07 06:30:19;;;;;;;;;;;24.10;99.90;;;;;;5071390;28;19912;-73
2022/01/07 06:32:45;;;;;;;;;;;24.10;99.90;;;;;;5071669;28;20302;-73
2022/01/07 06:35:12;;;;;;;;;;;24.00;99.90;;;;;;5071661;28;19913;-74
2022/01/07 06:37:39;;;;;;;;;;;24.10;99.90;;;;;;5071570;28;20559;-74
2022/01/07 06:40:06;;;;;;;;;;;24.00;99.90;;;;;;5071363;28;19959;-74
2022/01/07 06:42:33;;;;;;;;;;;23.90;99.90;;;;;;5071584;28;19948;-75
2022/01/07 06:45:00;;;;;;;;;;;23.90;99.90;;;;;;5071297;28;20473;-74
2022/01/07 06:47:27;;;;;;;;;;;23.90;99.90;;;;;;5071507;28;20244;-75
2022/01/07 06:49:54;;;;;;;;;;;23.90;99.90;;;;;;5071277;28;20319;-75
2022/01/07 06:52:21;;;;;;;;;;;23.90;99.90;;;;;;5071342;28;19954;-75
2022/01/07 06:54:48;;;;;;;;;;;23.90;99.90;;;;;;5071411;28;20408;-74
2022/01/07 06:57:14;;;;;;;;;;;23.90;99.90;;;;;;5070931;28;20312;-75
2022/01/07 06:59:41;;;;;;;;;;;23.90;99.90;;;;;;5070945;28;19928;-75
2022/01/07 07:02:08;;;;;;;;;;;24.00;99.90;;;;;;5070513;28;19913;-75
2022/01/07 07:04:35;;;;;;;;;;;24.00;99.90;;;;;;5070996;28;19908;-75
2022/01/07 07:07:01;;;;;;;;;;;24.00;99.90;;;;;;5071025;28;19913;-74
2022/01/07 07:09:28;;;;;;;;;;;24.00;99.90;;;;;;5070587;28;19927;-75
2022/01/07 07:11:55;;;;;;;;;;;23.90;99.90;;;;;;5070955;28;19920;-75
2022/01/07 07:14:21;;;;;;;;;;;24.00;99.90;;;;;;5070648;28;19909;-75
2022/01/07 07:16:51;;;;;;;;;;;24.00;99.90;;;;;;5071080;28;19908;-74
2022/01/07 07:22:07;;;;;;;;;;;24.00;99.90;;;;;;5070248;28;20409;-74
2022/01/07 07:24:33;;;;;;;;;;;23.90;99.90;;;;;;5070731;28;19912;-73
2022/01/07 07:27:00;;;;;;;;;;;23.90;99.90;;;;;;5070910;28;19915;-73
2022/01/07 07:29:27;;;;;;;;;;;23.90;99.90;;;;;;5070775;28;19909;-74
2022/01/07 07:31:56;;;;;;;;;;;23.80;99.90;;;;;;5070570;28;19909;-74
2022/01/07 07:36:59;;;;;;;;;;;23.70;99.90;;;;;;5070205;28;20359;-74
2022/01/07 07:39:26;;;;;;;;;;;23.80;99.90;;;;;;5070367;28;19974;-75
2022/01/07 07:41:52;;;;;;;;;;;23.80;99.90;;;;;;5070481;28;20014;-74
2022/01/07 07:44:19;;;;;;;;;;;23.80;99.90;;;;;;5070625;28;19916;-74
2022/01/07 07:46:45;;;;;;;;;;;23.80;99.90;;;;;;5070622;28;19913;-74
2022/01/07 07:49:14;;;;;;;;;;;23.70;99.90;;;;;;5069930;28;19974;-74
2022/01/07 07:51:40;;;;;;;;;;;23.70;99.90;;;;;;5070313;28;20043;-74
2022/01/07 07:54:08;;;;;;;;;;;23.70;99.90;;;;;;5070261;28;19951;-74
2022/01/07 07:56:34;;;;;;;;;;;23.60;99.90;;;;;;5070227;28;20011;-74
2022/01/07 07:59:01;;;;;;;;;;;23.60;99.90;;;;;;5070062;28;19913;-74
2022/01/07 08:01:28;;;;;;;;;;;23.60;99.90;;;;;;5070084;28;19908;-74
2022/01/07 08:03:55;;;;;;;;;;;23.60;99.90;;;;;;5070172;28;19969;-74
2022/01/07 08:06:21;;;;;;;;;;;23.60;99.90;;;;;;5071765;28;19952;-74
2022/01/07 08:08:48;;;;;;;;;;;23.60;99.90;;;;;;5072334;28;19962;-74
2022/01/07 08:11:15;;;;;;;;;;;23.50;99.90;;;;;;5072418;28;19924;-74
2022/01/07 08:16:27;;;;;;;;;;;23.50;99.90;;;;;;5076688;28;19915;-74
2022/01/07 08:18:55;;;;;;;;;;;23.50;99.90;;;;;;5076396;28;19916;-74
2022/01/07 08:21:24;;;;;;;;;;;23.50;99.90;;;;;;5076209;28;20351;-74
2022/01/07 08:23:51;;;;;;;;;;;23.40;99.90;;;;;;5076219;28;19909;-74
2022/01/07 08:26:19;;;;;;;;;;;23.40;99.90;;;;;;5076458;28;19909;-74
2022/01/07 08:28:50;;;;;;;;;;;23.40;99.90;;;;;;5076350;28;20045;-74
2022/01/07 08:36:34;;;;;;;;;;;23.40;99.90;;;;;;5075815;28;20355;-74
2022/01/07 08:39:02;;;;;;;;;;;23.40;99.90;;;;;;5076114;28;20274;-75
2022/01/07 08:41:30;;;;;;;;;;;23.30;99.90;;;;;;5075849;28;20341;-74
2022/01/07 08:43:57;;;;;;;;;;;23.30;99.90;;;;;;5075610;28;20263;-74
2022/01/07 08:46:24;;;;;;;;;;;23.30;99.90;;;;;;5075379;28;19908;-74
2022/01/07 08:48:50;;;;;;;;;;;23.30;99.90;;;;;;5075903;28;19961;-74
2022/01/07 08:51:17;;;;;;;;;;;23.30;99.90;;;;;;5075901;28;19908;-74
2022/01/07 08:53:44;;;;;;;;;;;23.30;99.90;;;;;;5075603;28;19909;-75
2022/01/07 08:56:11;;;;;;;;;;;23.30;99.90;;;;;;5075339;28;19913;-74
2022/01/07 08:58:37;;;;;;;;;;;23.30;99.90;;;;;;5075521;28;20287;-74
2022/01/07 09:01:04;;;;;;;;;;;23.20;99.90;;;;;;5075052;28;20035;-74
2022/01/07 09:03:31;;;;;;;;;;;23.30;99.90;;;;;;5075608;28;20002;-74
2022/01/07 09:05:58;;;;;;;;;;;23.30;99.90;;;;;;5075076;28;19962;-74
2022/01/07 09:08:25;;;;;;;;;;;23.30;99.90;;;;;;5075476;28;19908;-74
2022/01/07 09:10:52;;;;;;;;;;;23.30;99.90;;;;;;5075496;28;20347;-74
2022/01/07 09:13:20;;;;;;;;;;;23.30;99.90;;;;;;5075416;28;19931;-74
2022/01/07 09:15:47;;;;;;;;;;;23.30;99.90;;;;;;5074594;28;19915;-74
2022/01/07 09:18:14;;;;;;;;;;;23.30;99.90;;;;;;5075462;28;19930;-75
2022/01/07 09:20:42;;;;;;;;;;;23.30;99.90;;;;;;5075148;28;19916;-74
2022/01/07 09:23:10;;;;;;;;;;;23.30;99.90;;;;;;5074755;28;19908;-74
2022/01/07 09:25:36;;;;;;;;;;;23.30;99.90;;;;;;5074980;28;19912;-74
2022/01/07 09:28:05;;;;;;;;;;;23.20;99.90;;;;;;5074972;28;19999;-74
2022/01/07 09:30:32;;;;;;;;;;;23.20;99.90;;;;;;5074649;28;19908;-75
2022/01/07 09:32:58;;;;;;;;;;;23.20;99.90;;;;;;5075054;28;19980;-74
2022/01/07 09:35:26;;;;;;;;;;;23.20;99.90;;;;;;5075050;28;19997;-74
2022/01/07 09:37:53;;;;;;;;;;;23.20;99.90;;;;;;5074849;28;19915;-74
2022/01/07 09:40:20;;;;;;;;;;;23.20;99.90;;;;;;5074743;28;19916;-74
2022/01/07 09:43:13;;;;;;;;;;;23.20;99.90;;;;;;5074882;28;20291;-74
2022/01/07 09:45:39;;;;;;;;;;;23.20;99.90;;;;;;5072947;28;19909;-74
2022/01/07 09:48:08;;;;;;;;;;;23.20;99.90;;;;;;5074639;28;19913;-74
2022/01/07 09:50:35;;;;;;;;;;;23.20;99.90;;;;;;5074478;28;20020;-73
2022/01/07 09:53:06;;;;;;;;;;;23.20;99.90;;;;;;5074701;28;19908;-74
2022/01/07 09:55:33;;;;;;;;;;;23.20;99.90;;;;;;5074739;28;19999;-74
2022/01/07 09:58:00;;;;;;;;;;;23.10;99.90;;;;;;5074666;28;19944;-74
2022/01/07 10:00:32;;;;;;;;;;;23.10;99.90;;;;;;5074125;28;19970;-74
2022/01/07 10:03:00;;;;;;;;;;;23.10;99.90;;;;;;5074757;28;20275;-74
2022/01/07 10:05:27;;;;;;;;;;;23.10;99.90;;;;;;5074214;28;19951;-74
2022/01/07 10:07:53;;;;;;;;;;;23.10;99.90;;;;;;5074207;28;19935;-74
2022/01/07 10:10:20;;;;;;;;;;;23.10;99.90;;;;;;5074434;28;20003;-74
2022/01/07 10:12:55;;;;;;;;;;;23.10;99.90;;;;;;5074338;28;20411;-74
2022/01/07 10:15:27;;;;;;;;;;;23.10;99.90;;;;;;5073659;28;20046;-74
2022/01/07 10:17:59;;;;;;;;;;;23.10;99.90;;;;;;5073843;28;19948;-74
2022/01/07 10:20:27;;;;;;;;;;;23.10;99.90;;;;;;5073847;28;19916;-73
2022/01/07 10:22:55;;;;;;;;;;;23.10;99.90;;;;;;5074177;28;19909;-74
2022/01/07 10:25:24;;;;;;;;;;;23.10;99.90;;;;;;5074141;28;20000;-73
2022/01/07 10:27:51;;;;;;;;;;;23.00;99.90;;;;;;5073815;28;19908;-74
2022/01/07 10:30:26;;;;;;;;;;;23.00;99.90;;;;;;5073349;28;19943;-73
2022/01/07 10:32:53;;;;;;;;;;;23.00;99.90;;;;;;5074022;28;19991;-74
2022/01/07 10:35:23;;;;;;;;;;;23.00;99.90;;;;;;5072642;28;19909;-74
2022/01/07 10:37:51;;;;;;;;;;;22.90;99.90;;;;;;5073670;28;19916;-74
2022/01/07 10:40:38;;;;;;;;;;;23.00;99.90;;;;;;5072306;28;20286;-74
2022/01/07 10:43:15;;;;;;;;;;;22.90;99.90;;;;;;5073715;28;20354;-74
2022/01/07 10:45:43;;;;;;;;;;;22.90;99.90;;;;;;5071016;28;19935;-74
2022/01/07 10:48:11;;;;;;;;;;;23.00;99.90;;;;;;5071758;28;20006;-73
2022/01/07 10:50:48;;;;;;;;;;;23.00;99.90;;;;;;5071542;28;19919;-74
2022/01/07 10:53:22;;;;;;;;;;;22.90;99.90;;;;;;5071296;28;20271;-74
2022/01/07 10:56:05;;;;;;;;;;;22.90;99.90;;;;;;5071041;28;20355;-74
2022/01/07 10:58:44;;;;;;;;;;;22.90;99.90;;;;;;5070968;28;19931;-74
2022/01/07 11:01:19;;;;;;;;;;;22.90;99.90;;;;;;5071421;28;19943;-74
2022/01/07 11:03:47;;;;;;;;;;;22.90;99.90;;;;;;5070772;28;19916;-73
2022/01/07 11:06:13;;;;;;;;;;;22.90;99.90;;;;;;5071135;28;19959;-73
2022/01/07 11:08:40;;;;;;;;;;;22.80;99.90;;;;;;5071337;28;19913;-74
2022/01/07 11:11:11;;;;;;;;;;;22.90;99.90;;;;;;5070463;28;19985;-74
2022/01/07 11:13:38;;;;;;;;;;;22.80;99.90;;;;;;5070550;28;20385;-73
2022/01/07 11:16:05;;;;;;;;;;;22.80;99.90;;;;;;5070732;28;19962;-73
2022/01/07 11:18:32;;;;;;;;;;;22.80;99.90;;;;;;5070800;28;20363;-73
2022/01/07 11:20:59;;;;;;;;;;;22.90;99.90;;;;;;5070847;28;20026;-73
2022/01/07 11:23:26;;;;;;;;;;;22.90;99.90;;;;;;5070899;28;19916;-73
2022/01/07 11:26:04;;;;;;;;;;;22.90;99.90;;;;;;5070813;28;19955;-73
2022/01/07 11:28:31;;;;;;;;;;;22.80;99.90;;;;;;5070350;28;20359;-74
2022/01/07 11:31:06;;;;;;;;;;;22.90;99.90;;;;;;5070714;28;20325;-73
2022/01/07 11:33:33;;;;;;;;;;;22.90;99.90;;;;;;5070970;28;20252;-74
2022/01/07 11:36:00;;;;;;;;;;;22.90;99.90;;;;;;5070427;28;19916;-73
2022/01/07 11:38:38;;;;;;;;;;;22.90;99.90;;;;;;5070831;28;19916;-73
2022/01/07 11:41:06;;;;;;;;;;;22.90;99.90;;;;;;5070639;28;19990;-73
2022/01/07 11:43:34;;;;;;;;;;;22.90;99.90;;;;;;5070068;28;19913;-74
2022/01/07 11:46:21;;;;;;;;;;;22.80;99.90;;;;;;5070166;28;19915;-74
2022/01/07 11:48:47;;;;;;;;;;;22.90;99.90;;;;;;5070613;28;20375;-73
2022/01/07 11:51:15;;;;;;;;;;;22.90;99.90;;;;;;5069948;28;19913;-74
2022/01/07 11:53:42;;;;;;;;;;;22.90;99.90;;;;;;5070381;28;20336;-73
2022/01/07 11:56:10;;;;;;;;;;;22.90;99.90;;;;;;5070271;28;19955;-74
2022/01/07 11:58:38;;;;;;;;;;;22.90;99.90;;;;;;5070044;28;19908;-73
2022/01/07 12:01:05;;;;;;;;;;;22.80;99.90;;;;;;5068663;28;19920;-73
2022/01/07 12:03:32;;;;;;;;;;;22.90;99.90;;;;;;5070480;28;20364;-73
2022/01/07 12:05:59;;;;;;;;;;;22.90;99.90;;;;;;5069894;28;19909;-74
2022/01/07 12:08:41;;;;;;;;;;;22.80;99.90;;;;;;5070365;28;19916;-73
2022/01/07 12:11:11;;;;;;;;;;;22.80;99.90;;;;;;5070119;28;19943;-73
2022/01/07 12:13:39;;;;;;;;;;;22.80;99.90;;;;;;5070349;28;20279;-73
2022/01/07 12:16:09;;;;;;;;;;;22.90;99.90;;;;;;5069474;28;20367;-73
2022/01/07 12:18:36;;;;;;;;;;;22.90;99.90;;;;;;5069982;28;19916;-73
2022/01/07 12:21:02;;;;;;;;;;;22.90;99.90;;;;;;5070198;28;20386;-73
2022/01/07 12:23:29;;;;;;;;;;;22.90;99.90;;;;;;5070301;28;20377;-73
2022/01/07 12:25:57;;;;;;;;;;;22.90;99.90;;;;;;5070217;28;19908;-74
2022/01/07 12:28:24;;;;;;;;;;;22.90;99.90;;;;;;5070160;28;19927;-74
2022/01/07 12:30:51;;;;;;;;;;;22.90;99.90;;;;;;5070288;28;19930;-74
2022/01/07 12:33:18;;;;;;;;;;;22.90;99.90;;;;;;5070131;28;20027;-74
2022/01/07 12:35:45;;;;;;;;;;;22.90;99.90;;;;;;5070110;28;19908;-73
2022/01/07 12:38:16;;;;;;;;;;;22.90;99.90;;;;;;5070022;28;19916;-73
2022/01/07 12:40:50;;;;;;;;;;;22.90;99.90;;;;;;5069536;28;19920;-74
2022/01/07 12:43:19;;;;;;;;;;;22.90;99.90;;;;;;5070146;28;20054;-74
2022/01/07 12:45:54;;;;;;;;;;;22.90;99.90;;;;;;5069938;28;20295;-73
2022/01/07 12:48:30;;;;;;;;;;;22.90;99.90;;;;;;5070029;28;20403;-73
2022/01/07 12:51:00;;;;;;;;;;;22.90;99.90;;;;;;5070196;28;19948;-73
2022/01/07 12:53:26;;;;;;;;;;;22.90;99.90;;;;;;5069753;28;19915;-74
2022/01/07 12:55:53;;;;;;;;;;;23.00;99.90;;;;;;5069759;28;20397;-74
2022/01/07 12:58:28;;;;;;;;;;;22.90;99.90;;;;;;5070089;28;19916;-74
2022/01/07 13:00:55;;;;;;;;;;;22.80;99.90;;;;;;5073650;28;19974;-75
2022/01/07 13:03:26;;;;;;;;;;;22.70;99.90;;;;;;5073555;28;20342;-76
2022/01/07 13:06:03;;;;;;;;;;;22.70;99.90;;;;;;5072826;28;19970;-77
2022/01/07 13:08:34;;;;;;;;;;;22.40;99.90;;;;;;5073566;28;19915;-75
2022/01/07 13:11:01;;;;;;;;;;;22.20;99.90;;;;;;5073400;28;19924;-72
2022/01/07 13:13:28;;;;;;;;;;;21.80;99.90;;;;;;5073332;28;19912;-72
2022/01/07 13:15:58;;;;;;;;;;;21.60;99.90;;;;;;5073157;28;19963;-72
2022/01/07 13:18:27;;;;;;;;;;;21.40;99.90;;;;;;5073189;28;19916;-72
2022/01/07 13:20:55;;;;;;;;;;;21.20;99.90;;;;;;5072669;28;19964;-71
2022/01/07 13:23:24;;;;;;;;;;;20.90;99.90;;;;;;5073252;28;19913;-71
2022/01/07 13:25:52;;;;;;;;;;;20.80;99.90;;;;;;5073102;28;19909;-72
2022/01/07 13:28:38;;;;;;;;;;;20.70;99.90;;;;;;5073206;28;19992;-72
2022/01/07 13:31:08;;;;;;;;;;;20.70;99.90;;;;;;5073015;28;19915;-72
2022/01/07 13:33:35;;;;;;;;;;;20.60;99.90;;;;;;5072754;28;19919;-72
2022/01/07 13:36:05;;;;;;;;;;;20.70;99.90;;;;;;5072939;28;19969;-72
2022/01/07 13:38:32;;;;;;;;;;;20.60;99.90;;;;;;5105352;28;20016;-72
2022/01/07 13:41:15;;;;;;;;;;;20.60;99.90;;;;;;5072882;28;19920;-72
2022/01/07 13:43:43;;;;;;;;;;;20.60;99.90;;;;;;5072966;28;20083;-72
2022/01/07 13:46:09;;;;;;;;;;;20.60;99.90;;;;;;5072344;28;19909;-72
2022/01/07 13:48:56;;;;;;;;;;;20.60;99.90;;;;;;5072915;28;20312;-72
2022/01/07 13:51:24;;;;;;;;;;;20.60;99.90;;;;;;5072739;28;19913;-72
2022/01/07 13:54:06;;;;;;;;;;;20.70;99.90;;;;;;5072435;28;19959;-72
2022/01/07 13:56:33;;;;;;;;;;;20.70;99.90;;;;;;5072475;28;19918;-72
2022/01/07 13:59:00;;;;;;;;;;;20.80;99.90;;;;;;5072200;28;19913;-72
2022/01/07 14:01:26;;;;;;;;;;;20.80;99.90;;;;;;5072595;28;19948;-72
2022/01/07 14:03:54;;;;;;;;;;;20.80;99.90;;;;;;5072170;28;19913;-72
2022/01/07 14:06:24;;;;;;;;;;;20.80;99.90;;;;;;5072317;28;19959;-72
2022/01/07 14:09:11;;;;;;;;;;;20.90;99.90;;;;;;5072155;28;19948;-74
2022/01/07 14:11:38;;;;;;;;;;;20.90;99.90;;;;;;5071711;28;19986;-72
2022/01/07 14:14:15;;;;;;;;;;;20.90;99.90;;;;;;5072148;28;19908;-73
2022/01/07 14:16:45;;;;;;;;;;;20.80;99.90;;;;;;5072327;28;19913;-73
2022/01/07 14:19:13;;;;;;;;;;;20.80;99.90;;;;;;5072044;28;19916;-73
2022/01/07 14:21:43;;;;;;;;;;;20.80;99.90;;;;;;5071932;28;19912;-72
2022/01/07 14:24:12;;;;;;;;;;;20.80;99.90;;;;;;5071765;28;19915;-73
2022/01/07 14:26:46;;;;;;;;;;;20.90;99.90;;;;;;5072038;28;19913;-73
2022/01/07 14:29:13;;;;;;;;;;;20.90;99.90;;;;;;5071933;28;20561;-73
2022/01/07 14:31:40;;;;;;;;;;;20.80;99.90;;;;;;5071807;28;19958;-73
2022/01/07 14:34:06;;;;;;;;;;;20.80;99.90;;;;;;5071343;28;19913;-73
2022/01/07 14:36:33;;;;;;;;;;;20.70;99.90;;;;;;5071769;28;19957;-73